createdAt,value
2022-10-09T00:02:14.447Z,8.86
2022-10-09T00:04:44.604Z,8.89
2022-10-09T00:07:14.535Z,8.82
2022-10-09T00:09:44.374Z,8.78
2022-10-09T00:12:14.654Z,8.78
2022-10-09T00:14:45.136Z,8.73
2022-10-09T00:17:16.735Z,8.65
2022-10-09T00:19:46.655Z,8.62
2022-10-09T00:22:16.774Z,8.61
2022-10-09T00:24:46.702Z,8.59
2022-10-09T00:27:16.625Z,8.55
2022-10-09T00:29:46.906Z,8.53
2022-10-09T00:32:18.604Z,8.52
2022-10-09T00:34:48.864Z,8.48
2022-10-09T00:37:18.863Z,8.47
2022-10-09T00:39:49.177Z,8.48
2022-10-09T00:42:19.097Z,8.39
2022-10-09T00:44:53.173Z,8.31
2022-10-09T00:47:29.084Z,8.30
2022-10-09T00:50:04.524Z,8.27
2022-10-09T00:52:35.365Z,8.15
2022-10-09T00:55:06.204Z,8.14
2022-10-09T00:57:39.191Z,8.21
2022-10-09T01:00:12.244Z,8.18
2022-10-09T01:02:44.892Z,8.14
2022-10-09T01:05:16.214Z,8.14
2022-10-09T01:07:49.335Z,8.11
2022-10-09T01:10:28.846Z,8.00
2022-10-09T01:13:08.173Z,7.98
2022-10-09T01:15:46.087Z,7.97
2022-10-09T01:18:24.943Z,7.92
2022-10-09T01:21:00.834Z,7.87
2022-10-09T01:24:00.004Z,7.85
2022-10-09T01:26:44.874Z,7.88
2022-10-09T01:29:17.086Z,7.84
2022-10-09T01:31:50.623Z,7.83
2022-10-09T01:34:22.644Z,7.81
2022-10-09T01:36:54.014Z,7.78
2022-10-09T01:39:25.244Z,7.78
2022-10-09T01:41:58.493Z,7.74
2022-10-09T01:44:30.943Z,7.75
2022-10-09T01:47:01.786Z,7.68
2022-10-09T01:49:45.664Z,7.66
2022-10-09T01:52:31.533Z,7.68
2022-10-09T01:55:20.863Z,7.69
2022-10-09T01:57:58.443Z,7.70
2022-10-09T02:00:30.060Z,7.61
2022-10-09T02:03:01.897Z,7.59
2022-10-09T02:05:33.553Z,7.56
2022-10-09T02:08:03.783Z,7.54
2022-10-09T02:10:37.114Z,7.49
2022-10-09T02:13:08.975Z,7.48
2022-10-09T02:15:47.299Z,7.54
2022-10-09T02:18:21.726Z,7.52
2022-10-09T02:20:57.192Z,7.51
2022-10-09T02:23:29.455Z,7.58
2022-10-09T02:26:00.414Z,7.55
2022-10-09T02:28:32.154Z,7.52
2022-10-09T02:31:13.183Z,7.53
2022-10-09T02:33:43.234Z,7.50
2022-10-09T02:36:14.573Z,7.45
2022-10-09T02:38:44.584Z,7.48
2022-10-09T02:41:14.813Z,7.44
2022-10-09T02:43:46.218Z,7.42
2022-10-09T02:46:17.206Z,7.43
2022-10-09T02:48:47.404Z,7.42
2022-10-09T02:51:17.964Z,7.40
2022-10-09T02:53:48.496Z,7.35
2022-10-09T02:56:18.585Z,7.28
2022-10-09T02:58:50.314Z,7.23
2022-10-09T03:01:21.009Z,7.25
2022-10-09T03:03:50.884Z,7.27
2022-10-09T03:06:23.344Z,7.26
2022-10-09T03:08:54.033Z,7.24
2022-10-09T03:11:26.364Z,7.38
2022-10-09T03:13:58.604Z,7.47
2022-10-09T03:16:28.491Z,7.38
2022-10-09T03:18:58.803Z,7.27
2022-10-09T03:21:29.944Z,7.20
2022-10-09T03:23:59.872Z,7.19
2022-10-09T03:26:30.677Z,7.20
2022-10-09T03:29:02.203Z,7.21
2022-10-09T03:31:52.340Z,7.21
2022-10-09T03:34:22.804Z,7.22
2022-10-09T03:36:53.161Z,7.25
2022-10-09T03:39:23.188Z,7.29
2022-10-09T03:41:53.145Z,7.25
2022-10-09T03:44:24.983Z,7.21
2022-10-09T03:46:54.719Z,7.19
2022-10-09T03:49:24.922Z,7.16
2022-10-09T03:51:55.354Z,7.12
2022-10-09T03:54:25.354Z,7.05
2022-10-09T03:56:55.573Z,6.97
2022-10-09T03:59:26.946Z,6.95
2022-10-09T04:01:57.183Z,6.99
2022-10-09T04:04:27.165Z,6.93
2022-10-09T04:06:57.235Z,6.89
2022-10-09T04:09:27.472Z,6.91
2022-10-09T04:11:57.503Z,7.02
2022-10-09T04:14:28.974Z,7.11
2022-10-09T04:16:59.294Z,7.08
2022-10-09T04:19:29.324Z,7.17
2022-10-09T04:21:59.264Z,7.16
2022-10-09T04:24:29.447Z,7.21
2022-10-09T04:26:59.394Z,7.20
2022-10-09T04:29:30.744Z,7.20
2022-10-09T04:32:00.736Z,7.22
2022-10-09T04:34:30.684Z,7.19
2022-10-09T04:37:00.975Z,7.14
2022-10-09T04:39:31.204Z,7.08
2022-10-09T04:42:01.165Z,7.12
2022-10-09T04:44:32.553Z,7.03
2022-10-09T04:47:02.875Z,6.99
2022-10-09T04:49:32.745Z,6.97
2022-10-09T04:52:02.952Z,7.02
2022-10-09T04:54:33.104Z,7.05
2022-10-09T04:57:03.066Z,7.06
2022-10-09T04:59:34.504Z,7.18
2022-10-09T05:02:05.141Z,7.15
2022-10-09T05:04:35.194Z,7.20
2022-10-09T05:07:05.454Z,7.27
2022-10-09T05:09:35.377Z,7.26
2022-10-09T05:12:05.466Z,7.21
2022-10-09T05:14:37.286Z,7.02
2022-10-09T05:17:15.217Z,6.93
2022-10-09T05:19:45.990Z,6.82
2022-10-09T05:22:17.065Z,6.77
2022-10-09T05:24:47.505Z,6.66
2022-10-09T05:27:17.604Z,6.61
2022-10-09T05:29:48.945Z,6.54
2022-10-09T05:32:18.763Z,6.52
2022-10-09T05:34:48.834Z,6.46
2022-10-09T05:37:18.865Z,6.40
2022-10-09T05:39:49.274Z,6.37
2022-10-09T05:42:19.303Z,6.33
2022-10-09T05:44:50.834Z,6.36
2022-10-09T05:47:21.318Z,6.32
2022-10-09T05:49:51.296Z,6.38
2022-10-09T05:52:21.424Z,6.37
2022-10-09T05:54:52.548Z,6.39
2022-10-09T05:57:22.455Z,6.44
2022-10-09T05:59:54.047Z,6.85
2022-10-09T06:02:24.229Z,6.75
2022-10-09T06:04:54.544Z,6.98
2022-10-09T06:07:24.438Z,6.98
2022-10-09T06:09:54.447Z,7.20
2022-10-09T06:12:24.935Z,7.49
2022-10-09T06:14:56.707Z,7.63
2022-10-09T06:17:26.865Z,7.85
2022-10-09T06:19:56.976Z,7.99
2022-10-09T06:22:27.107Z,8.19
2022-10-09T06:24:57.799Z,8.33
2022-10-09T06:27:28.104Z,8.54
2022-10-09T06:30:00.072Z,8.75
2022-10-09T06:32:30.196Z,8.82
2022-10-09T06:35:00.601Z,8.91
2022-10-09T06:37:30.622Z,9.02
2022-10-09T06:40:00.891Z,9.06
2022-10-09T06:42:31.884Z,9.20
2022-10-09T06:45:03.755Z,9.28
2022-10-09T06:47:33.419Z,9.41
2022-10-09T06:50:03.907Z,9.44
2022-10-09T06:52:34.284Z,9.56
2022-10-09T06:55:04.664Z,9.65
2022-10-09T06:57:34.817Z,9.77
2022-10-09T07:00:08.777Z,9.91
2022-10-09T07:02:43.887Z,10.00
2022-10-09T07:05:14.640Z,10.04
2022-10-09T07:07:44.763Z,10.67
2022-10-09T07:10:15.617Z,11.65
2022-10-09T07:12:45.994Z,12.11
2022-10-09T07:15:18.112Z,12.20
2022-10-09T07:17:49.445Z,12.69
2022-10-09T07:20:19.793Z,12.86
2022-10-09T07:22:50.047Z,12.78
2022-10-09T07:25:20.652Z,13.18
2022-10-09T07:27:50.992Z,13.49
2022-10-09T07:30:22.591Z,13.45
2022-10-09T07:32:54.318Z,13.27
2022-10-09T07:35:24.745Z,13.46
2022-10-09T07:37:54.686Z,13.88
2022-10-09T07:40:26.397Z,14.39
2022-10-09T07:42:56.354Z,14.69
2022-10-09T07:45:28.280Z,14.54
2022-10-09T07:47:58.284Z,14.58
2022-10-09T07:50:29.053Z,14.12
2022-10-09T07:52:59.222Z,14.46
2022-10-09T07:55:29.748Z,14.65
2022-10-09T07:58:00.877Z,14.75
2022-10-09T08:00:32.520Z,14.73
2022-10-09T08:03:03.049Z,14.64
2022-10-09T08:05:33.352Z,14.76
2022-10-09T08:08:03.716Z,15.48
2022-10-09T08:10:34.824Z,15.24
2022-10-09T08:13:05.205Z,15.27
2022-10-09T08:15:42.908Z,15.47
2022-10-09T08:18:13.503Z,15.12
2022-10-09T08:20:45.006Z,14.72
2022-10-09T08:23:15.536Z,14.29
2022-10-09T08:25:48.395Z,14.27
2022-10-09T08:28:20.497Z,13.55
2022-10-09T08:30:52.401Z,13.86
2022-10-09T08:33:23.810Z,14.22
2022-10-09T08:35:54.766Z,14.65
2022-10-09T08:38:45.965Z,14.23
2022-10-09T08:41:26.246Z,14.16
2022-10-09T08:44:05.045Z,14.34
2022-10-09T08:46:44.768Z,14.24
2022-10-09T08:49:26.414Z,15.00
2022-10-09T08:52:03.681Z,14.80
2022-10-09T08:54:37.184Z,15.89
2022-10-09T08:57:13.036Z,15.12
2022-10-09T08:59:43.635Z,15.13
2022-10-09T09:02:45.230Z,14.94
2022-10-09T09:05:31.475Z,14.40
2022-10-09T09:08:15.113Z,14.34
2022-10-09T09:10:52.045Z,14.44
2022-10-09T09:13:42.334Z,14.04
2022-10-09T09:16:19.865Z,13.73
2022-10-09T09:19:01.805Z,14.05
2022-10-09T09:21:41.075Z,14.54
2022-10-09T09:24:17.922Z,14.48
2022-10-09T09:26:52.434Z,14.48
2022-10-09T09:29:25.445Z,14.51
2022-10-09T09:31:59.994Z,14.70
2022-10-09T09:34:40.084Z,15.12
2022-10-09T09:37:13.206Z,15.04
2022-10-09T09:40:31.330Z,15.20
2022-10-09T09:42:34.716Z,14.39
2022-10-09T09:45:08.013Z,14.33
2022-10-09T09:47:43.254Z,14.46
2022-10-09T09:50:42.398Z,14.47
2022-10-09T09:53:09.152Z,14.04
2022-10-09T09:55:39.345Z,14.15
2022-10-09T09:58:16.595Z,14.06
2022-10-09T10:00:57.393Z,14.02
2022-10-09T10:03:28.163Z,13.87
2022-10-09T10:06:00.054Z,13.77
2022-10-09T10:08:32.037Z,13.67
2022-10-09T10:11:04.185Z,13.42
2022-10-09T10:13:38.479Z,13.52
2022-10-09T10:16:12.599Z,13.72
2022-10-09T10:18:44.455Z,13.86
2022-10-09T10:21:17.864Z,13.97
2022-10-09T10:23:56.190Z,14.19
2022-10-09T10:26:31.793Z,14.21
2022-10-09T10:29:08.384Z,14.31
2022-10-09T10:31:51.903Z,14.58
2022-10-09T10:34:28.816Z,14.90
2022-10-09T10:37:08.476Z,14.87
2022-10-09T10:39:45.206Z,15.09
2022-10-09T10:42:24.187Z,14.29
2022-10-09T10:45:01.363Z,13.81
2022-10-09T10:47:36.436Z,14.18
2022-10-09T10:50:07.186Z,14.23
2022-10-09T10:52:50.314Z,14.14
2022-10-09T10:55:34.934Z,14.10
2022-10-09T11:01:04.963Z,14.30
2022-10-09T11:04:06.036Z,14.11
2022-10-09T11:06:43.954Z,13.60
2022-10-09T11:09:25.450Z,13.24
2022-10-09T11:12:00.870Z,13.12
2022-10-09T11:14:44.523Z,13.28
2022-10-09T11:17:23.106Z,13.63
2022-10-09T11:20:09.288Z,13.82
2022-10-09T11:23:02.054Z,13.88
2022-10-09T11:25:43.934Z,14.11
2022-10-09T11:28:16.339Z,14.40
2022-10-09T11:30:52.421Z,14.45
2022-10-09T11:33:33.516Z,14.51
2022-10-09T11:36:10.199Z,14.25
2022-10-09T11:38:46.914Z,14.16
2022-10-09T11:41:21.091Z,14.27
2022-10-09T11:44:05.966Z,14.38
2022-10-09T11:46:54.906Z,14.40
2022-10-09T11:49:38.397Z,14.40
2022-10-09T11:52:20.202Z,14.48
2022-10-09T11:54:52.559Z,14.51
2022-10-09T11:57:34.456Z,14.49
2022-10-09T12:00:10.386Z,14.43
2022-10-09T12:02:43.738Z,14.30
2022-10-09T12:05:37.264Z,14.38
2022-10-09T12:08:13.036Z,14.27
2022-10-09T12:10:52.428Z,14.56
2022-10-09T12:13:43.758Z,14.70
2022-10-09T12:16:37.080Z,14.85
2022-10-09T12:19:19.423Z,15.18
2022-10-09T12:22:15.610Z,15.01
2022-10-09T12:24:49.508Z,14.82
2022-10-09T12:27:24.000Z,14.72
2022-10-09T12:29:58.459Z,15.02
2022-10-09T12:32:31.842Z,15.18
2022-10-09T12:35:11.498Z,15.04
2022-10-09T12:37:41.641Z,14.31
2022-10-09T12:40:16.789Z,14.15
2022-10-09T12:42:52.010Z,14.22
2022-10-09T12:45:26.489Z,14.27
2022-10-09T12:47:57.702Z,14.60
2022-10-09T12:50:29.109Z,14.82
2022-10-09T12:53:02.111Z,14.87
2022-10-09T12:55:34.040Z,14.84
2022-10-09T12:58:07.325Z,14.83
2022-10-09T13:00:41.251Z,15.02
2022-10-09T13:03:39.928Z,15.25
2022-10-09T13:06:18.922Z,15.47
2022-10-09T13:08:55.822Z,15.87
2022-10-09T13:11:33.743Z,15.11
2022-10-09T13:14:04.138Z,14.81
2022-10-09T13:16:48.153Z,14.45
2022-10-09T13:19:25.821Z,14.22
2022-10-09T13:22:22.607Z,13.92
2022-10-09T13:24:57.548Z,13.81
2022-10-09T13:27:36.354Z,13.82
2022-10-09T13:30:14.032Z,14.06
2022-10-09T13:32:46.491Z,14.13
2022-10-09T13:35:17.643Z,14.11
2022-10-09T13:37:50.817Z,14.22
2022-10-09T13:40:22.643Z,14.26
2022-10-09T13:42:55.558Z,14.35
2022-10-09T13:45:28.771Z,14.21
2022-10-09T13:48:01.980Z,14.15
2022-10-09T13:50:32.338Z,14.20
2022-10-09T13:53:04.881Z,14.06
2022-10-09T13:55:37.292Z,14.07
2022-10-09T13:58:11.422Z,14.09
2022-10-09T14:00:42.358Z,14.03
2022-10-09T14:03:15.010Z,14.06
2022-10-09T14:05:45.539Z,14.16
2022-10-09T14:08:19.323Z,14.22
2022-10-09T14:10:54.479Z,14.22
2022-10-09T14:13:30.221Z,14.16
2022-10-09T14:16:01.181Z,14.15
2022-10-09T14:18:33.216Z,14.12
2022-10-09T14:21:12.502Z,13.95
2022-10-09T14:23:45.772Z,13.73
2022-10-09T14:26:16.113Z,13.69
2022-10-09T14:28:49.159Z,13.67
2022-10-09T14:31:22.159Z,13.62
2022-10-09T14:33:59.543Z,13.69
2022-10-09T14:36:35.484Z,13.59
2022-10-09T14:39:10.981Z,13.66
2022-10-09T14:41:48.889Z,13.48
2022-10-09T14:44:23.220Z,13.46
2022-10-09T14:47:06.894Z,13.48
2022-10-09T14:49:45.616Z,13.45
2022-10-09T14:52:24.332Z,13.44
2022-10-09T14:54:59.213Z,13.37
2022-10-09T14:57:35.720Z,13.28
2022-10-09T15:00:11.893Z,13.11
2022-10-09T15:02:47.419Z,13.16
2022-10-09T15:05:24.511Z,13.13
2022-10-09T15:07:55.272Z,12.96
2022-10-09T15:10:32.587Z,12.77
2022-10-09T15:13:07.837Z,12.58
2022-10-09T15:15:44.171Z,12.32
2022-10-09T15:18:16.294Z,12.08
2022-10-09T15:20:53.933Z,11.86
2022-10-09T15:23:30.219Z,11.69
2022-10-09T15:26:02.281Z,11.41
2022-10-09T15:28:34.172Z,11.19
2022-10-09T15:31:16.820Z,10.92
2022-10-09T15:33:46.882Z,10.76
2022-10-09T15:36:19.449Z,10.62
2022-10-09T15:38:49.512Z,10.60
2022-10-09T15:41:24.963Z,10.54
2022-10-09T15:44:00.399Z,10.42
2022-10-09T15:46:34.367Z,10.13
2022-10-09T15:49:12.939Z,9.99
2022-10-09T15:51:47.174Z,9.74
2022-10-09T15:54:26.064Z,9.51
2022-10-09T15:56:58.563Z,9.31
2022-10-09T15:59:30.454Z,9.18
2022-10-09T16:02:01.792Z,9.13
2022-10-09T16:04:35.842Z,9.07
2022-10-09T16:07:12.469Z,8.85
2022-10-09T16:09:42.692Z,8.71
2022-10-09T16:12:14.157Z,8.55
2022-10-09T16:14:45.931Z,8.47
2022-10-09T16:17:22.545Z,8.34
2022-10-09T16:19:55.758Z,7.93
2022-10-09T16:22:35.738Z,8.17
2022-10-09T16:25:08.130Z,8.11
2022-10-09T16:27:39.220Z,8.00
2022-10-09T16:30:12.330Z,7.95
2022-10-09T16:32:43.734Z,7.87
2022-10-09T16:35:23.765Z,7.74
2022-10-09T16:37:58.651Z,7.55
2022-10-09T16:41:00.698Z,7.59
2022-10-09T16:43:27.015Z,7.41
2022-10-09T16:45:57.181Z,7.26
2022-10-09T16:48:31.281Z,7.25
2022-10-09T16:51:04.315Z,7.38
2022-10-09T16:53:39.849Z,7.41
2022-10-09T16:56:13.033Z,7.41
2022-10-09T16:58:45.060Z,7.40
2022-10-09T17:01:15.683Z,7.29
2022-10-09T17:03:46.047Z,7.20
2022-10-09T17:06:20.702Z,7.17
2022-10-09T17:08:56.128Z,7.19
2022-10-09T17:11:31.227Z,7.27
2022-10-09T17:14:02.548Z,7.28
2022-10-09T17:16:36.362Z,7.20
2022-10-09T17:19:07.390Z,7.14
2022-10-09T17:21:37.580Z,7.12
2022-10-09T17:24:11.425Z,7.02
2022-10-09T17:26:41.391Z,6.98
2022-10-09T17:29:11.733Z,6.96
2022-10-09T17:31:41.834Z,6.96
2022-10-09T17:34:12.887Z,6.89
2022-10-09T17:36:44.660Z,6.93
2022-10-09T17:39:18.339Z,6.96
2022-10-09T17:41:50.432Z,7.00
2022-10-09T17:44:21.560Z,6.98
2022-10-09T17:46:51.448Z,6.88
2022-10-09T17:49:21.861Z,6.82
2022-10-09T17:51:54.487Z,6.70
2022-10-09T17:54:26.860Z,6.65
2022-10-09T17:56:56.759Z,6.57
2022-10-09T17:59:29.090Z,6.48
2022-10-09T18:01:59.421Z,6.45
2022-10-09T18:04:31.590Z,6.41
2022-10-09T18:07:03.783Z,6.46
2022-10-09T18:09:36.792Z,6.44
2022-10-09T18:12:07.123Z,6.46
2022-10-09T18:14:39.495Z,6.35
2022-10-09T18:17:09.853Z,6.33
2022-10-09T18:19:40.130Z,6.33
2022-10-09T18:22:10.362Z,6.28
2022-10-09T18:24:43.330Z,6.21
2022-10-09T18:27:13.402Z,6.24
2022-10-09T18:29:43.770Z,6.23
2022-10-09T18:32:13.871Z,6.16
2022-10-09T18:34:46.468Z,6.13
2022-10-09T18:37:16.709Z,6.08
2022-10-09T18:39:49.031Z,6.00
2022-10-09T18:42:18.991Z,6.03
2022-10-09T18:44:49.591Z,6.02
2022-10-09T18:47:23.090Z,5.99
2022-10-09T18:49:56.549Z,5.93
2022-10-09T18:52:28.802Z,5.92
2022-10-09T18:55:02.614Z,5.90
2022-10-09T18:57:34.542Z,5.83
2022-10-09T19:00:05.409Z,5.75
2022-10-09T19:02:35.611Z,5.61
2022-10-09T19:05:06.709Z,5.63
2022-10-09T19:07:37.266Z,5.71
2022-10-09T19:10:09.636Z,5.73
2022-10-09T19:12:40.099Z,5.66
2022-10-09T19:15:12.377Z,5.60
2022-10-09T19:17:42.704Z,5.53
2022-10-09T19:20:13.398Z,5.51
2022-10-09T19:22:43.485Z,5.50
2022-10-09T19:25:15.547Z,5.50
2022-10-09T19:27:45.757Z,5.46
2022-10-09T19:30:16.721Z,5.31
2022-10-09T19:32:47.367Z,5.22
2022-10-09T19:35:20.477Z,5.12
2022-10-09T19:37:50.709Z,5.04
2022-10-09T19:40:22.689Z,5.09
2022-10-09T19:42:53.161Z,5.09
2022-10-09T19:45:23.375Z,5.10
2022-10-09T19:47:54.296Z,5.15
2022-10-09T19:50:24.702Z,5.16
2022-10-09T19:52:55.298Z,5.10
2022-10-09T19:55:30.834Z,5.10
2022-10-09T19:58:01.700Z,5.04
2022-10-09T20:00:32.305Z,4.97
2022-10-09T20:03:02.530Z,4.91
2022-10-09T20:05:34.042Z,4.89
2022-10-09T20:08:04.141Z,4.88
2022-10-09T20:10:38.079Z,4.88
2022-10-09T20:13:08.712Z,4.80
2022-10-09T20:15:42.514Z,4.70
2022-10-09T20:18:12.613Z,4.64
2022-10-09T20:20:49.861Z,4.69
2022-10-09T20:23:19.884Z,4.65
2022-10-09T20:26:00.010Z,4.69
2022-10-09T20:28:32.398Z,4.71
2022-10-09T20:31:06.619Z,4.65
2022-10-09T20:33:37.656Z,4.61
2022-10-09T20:36:09.280Z,4.62
2022-10-09T20:38:39.272Z,4.62
2022-10-09T20:41:11.142Z,4.55
2022-10-09T20:43:41.799Z,4.50
2022-10-09T20:46:14.023Z,4.49
2022-10-09T20:48:44.959Z,4.49
2022-10-09T20:51:15.280Z,4.50
2022-10-09T20:53:45.409Z,4.36
2022-10-09T20:56:17.430Z,4.30
2022-10-09T20:58:47.123Z,4.28
2022-10-09T21:01:17.556Z,4.28
2022-10-09T21:03:47.599Z,4.22
2022-10-09T21:06:19.732Z,4.14
2022-10-09T21:08:49.924Z,4.00
2022-10-09T21:11:22.161Z,3.99
2022-10-09T21:13:52.723Z,3.96
2022-10-09T21:16:24.590Z,3.94
2022-10-09T21:18:58.161Z,3.92
2022-10-09T21:21:30.301Z,3.88
2022-10-09T21:24:01.551Z,3.85
2022-10-09T21:26:36.020Z,3.90
2022-10-09T21:29:07.082Z,3.95
2022-10-09T21:31:37.250Z,4.00
2022-10-09T21:34:07.375Z,3.79
2022-10-09T21:36:56.195Z,3.75
2022-10-09T21:39:32.357Z,3.73
2022-10-09T21:42:04.090Z,3.76
2022-10-09T21:44:34.009Z,3.84
2022-10-09T21:47:04.327Z,3.57
2022-10-09T21:49:35.339Z,3.74
2022-10-09T21:52:05.577Z,3.69
2022-10-09T21:54:35.571Z,3.72
2022-10-09T21:57:07.579Z,3.63
2022-10-09T21:59:37.551Z,3.66
2022-10-09T22:02:07.821Z,3.46
2022-10-09T22:04:37.770Z,3.65
2022-10-09T22:07:08.100Z,3.64
2022-10-09T22:09:37.990Z,3.69
2022-10-09T22:12:09.820Z,3.66
2022-10-09T22:14:39.620Z,3.67
2022-10-09T22:17:10.053Z,3.69
2022-10-09T22:19:40.310Z,3.63
2022-10-09T22:22:11.152Z,3.59
2022-10-09T22:24:41.251Z,3.59
2022-10-09T22:27:13.021Z,3.58
2022-10-09T22:29:42.600Z,3.51
2022-10-09T22:32:12.939Z,3.55
2022-10-09T22:34:42.891Z,3.58
2022-10-09T22:37:13.098Z,3.63
2022-10-09T22:39:42.991Z,3.59
2022-10-09T22:42:14.642Z,3.58
2022-10-09T22:44:44.530Z,3.52
2022-10-09T22:47:14.790Z,3.45
2022-10-09T22:49:44.740Z,3.33
2022-10-09T22:52:14.642Z,3.40
2022-10-09T22:54:45.100Z,3.35
2022-10-09T22:57:16.531Z,3.35
2022-10-09T22:59:46.860Z,3.34
2022-10-09T23:02:16.862Z,3.37
2022-10-09T23:04:47.011Z,3.39
2022-10-09T23:07:16.991Z,3.39
2022-10-09T23:09:47.400Z,3.36
2022-10-09T23:12:18.740Z,3.36
2022-10-09T23:14:48.691Z,3.35
2022-10-09T23:17:18.610Z,3.34
2022-10-09T23:19:49.561Z,3.38
2022-10-09T23:22:19.392Z,3.31
2022-10-09T23:24:49.642Z,3.22
2022-10-09T23:27:21.259Z,3.23
2022-10-09T23:29:51.611Z,3.21
2022-10-09T23:32:21.591Z,3.22
2022-10-09T23:34:51.825Z,3.17
2022-10-09T23:37:21.799Z,3.22
2022-10-09T23:39:52.032Z,3.28
2022-10-09T23:42:23.360Z,3.16
2022-10-09T23:44:53.629Z,3.08
2022-10-09T23:47:23.699Z,3.06
2022-10-09T23:49:53.893Z,2.99
2022-10-09T23:52:23.839Z,2.94
2022-10-09T23:54:54.023Z,2.96
2022-10-09T23:57:25.462Z,2.93
2022-10-09T23:59:55.710Z,2.96
